Billville, Indiana
Current Conditions -  °F | °C
As of 12:53 PM on Saturday 20 Dec 2014 (Local Time) from KHUF Reporting Station
Overcast Overcast  
Wind Chill: 34°   Ceiling: 6000
Heat Index: 34°   Visibility: 10mi
Dew Point: 24°   Wind: 0mph
Humidity: 67%   Direction: NA
Pressure: 30.29"   Gusts: NA
Location:  39.5158°N, 87.1262°W
Report Text: KHUF 201753Z 00000KT 10SM SCT021 OVC060 01/M04 A3029 RMK AO2 SLP264 T00111044 10011 21017 58004
Loading
Personal Weather Stations






























Interactive Weather Map New forecast layout! Learn more

10-Day Weather Forecast

Advertisements
Track Severe Weather on mobile